createdAt,value
2022-10-11T00:00:43.747Z,8.98
2022-10-11T00:05:37.113Z,9.02
2022-10-11T00:08:05.795Z,9.12
2022-10-11T00:10:33.873Z,9.88
2022-10-11T00:13:00.841Z,9.89
2022-10-11T00:15:28.698Z,9.68
2022-10-11T00:17:55.927Z,9.84
2022-10-11T00:20:22.773Z,9.90
2022-10-11T00:22:49.555Z,9.25
2022-10-11T00:25:16.933Z,9.69
2022-10-11T00:27:43.565Z,9.99
2022-10-11T00:30:11.328Z,9.67
2022-10-11T00:32:38.591Z,9.47
2022-10-11T00:35:07.121Z,10.06
2022-10-11T00:37:35.241Z,9.98
2022-10-11T00:40:02.984Z,9.88
2022-10-11T00:42:29.554Z,9.54
2022-10-11T00:45:28.151Z,10.13
2022-10-11T00:47:56.995Z,9.61
2022-10-11T00:50:24.670Z,9.38
2022-10-11T00:52:57.537Z,9.32
2022-10-11T00:55:26.866Z,9.38
2022-10-11T00:57:55.485Z,9.38
2022-10-11T01:00:22.151Z,10.18
2022-10-11T01:02:49.220Z,10.13
2022-10-11T01:05:29.307Z,10.20
2022-10-11T01:07:58.965Z,10.20
2022-10-11T01:10:26.285Z,9.51
2022-10-11T01:13:20.643Z,10.23
2022-10-11T01:15:58.498Z,10.22
2022-10-11T01:18:32.845Z,9.56
2022-10-11T01:21:08.515Z,10.24
2022-10-11T01:24:02.699Z,10.24
2022-10-11T01:27:01.313Z,9.77
2022-10-11T01:29:57.709Z,10.27
2022-10-11T01:32:24.227Z,10.27
2022-10-11T01:35:13.197Z,10.27
2022-10-11T01:37:45.572Z,9.65
2022-10-11T01:40:24.134Z,10.27
2022-10-11T01:42:52.226Z,10.17
2022-10-11T01:45:20.708Z,9.47
2022-10-11T01:47:47.601Z,10.27
2022-10-11T01:50:38.908Z,10.29
2022-10-11T01:53:34.664Z,9.67
2022-10-11T01:56:26.358Z,10.30
2022-10-11T01:59:18.404Z,10.32
2022-10-11T02:01:50.806Z,10.32
2022-10-11T02:04:25.000Z,10.33
2022-10-11T02:07:01.062Z,10.33
2022-10-11T02:09:40.647Z,10.31
2022-10-11T02:12:12.179Z,10.07
2022-10-11T02:14:43.775Z,10.29
2022-10-11T02:17:15.221Z,10.12
2022-10-11T02:19:48.233Z,10.24
2022-10-11T02:22:31.896Z,9.78
2022-10-11T02:25:02.703Z,9.46
2022-10-11T02:27:33.208Z,10.06
2022-10-11T02:30:03.400Z,9.54
2022-10-11T02:32:32.262Z,10.13
2022-10-11T02:35:01.858Z,9.36
2022-10-11T02:38:02.292Z,10.13
2022-10-11T02:40:33.278Z,9.88
2022-10-11T02:43:03.806Z,10.05
2022-10-11T02:45:44.714Z,9.73
2022-10-11T02:48:12.537Z,10.01
2022-10-11T02:50:40.340Z,9.37
2022-10-11T02:53:07.574Z,10.20
2022-10-11T02:55:34.165Z,10.25
2022-10-11T02:58:00.935Z,10.28
2022-10-11T03:00:29.362Z,9.59
2022-10-11T03:02:55.901Z,10.33
2022-10-11T03:05:22.553Z,10.31
2022-10-11T03:07:49.091Z,9.86
2022-10-11T03:10:15.806Z,9.66
2022-10-11T03:12:42.410Z,10.27
2022-10-11T03:15:09.421Z,10.47
2022-10-11T03:17:37.311Z,10.49
2022-10-11T03:20:06.026Z,10.52
2022-10-11T03:22:32.573Z,10.51
2022-10-11T03:25:03.669Z,10.52
2022-10-11T03:27:31.079Z,10.54
2022-10-11T03:29:57.815Z,9.65
2022-10-11T03:32:24.583Z,10.57
2022-10-11T03:34:51.145Z,9.93
2022-10-11T03:37:18.231Z,10.50
2022-10-11T03:39:45.660Z,9.78
2022-10-11T03:42:12.762Z,9.84
2022-10-11T03:44:39.463Z,10.04
2022-10-11T03:47:06.051Z,9.98
2022-10-11T03:49:32.651Z,10.00
2022-10-11T03:51:59.962Z,10.03
2022-10-11T03:54:26.608Z,10.61
2022-10-11T03:56:53.269Z,10.61
2022-10-11T03:59:19.904Z,10.27
2022-10-11T04:01:46.526Z,9.97
2022-10-11T04:04:13.211Z,10.69
2022-10-11T04:06:39.909Z,10.74
2022-10-11T04:09:06.514Z,10.06
2022-10-11T04:11:33.153Z,10.79
2022-10-11T04:13:59.813Z,10.81
2022-10-11T04:16:26.458Z,10.04
2022-10-11T04:18:53.181Z,10.65
2022-10-11T04:21:19.762Z,9.76
2022-10-11T04:23:46.329Z,10.88
2022-10-11T04:26:13.073Z,10.83
2022-10-11T04:28:39.675Z,10.89
2022-10-11T04:31:07.914Z,10.80
2022-10-11T04:33:34.526Z,10.56
2022-10-11T04:36:01.694Z,10.93
2022-10-11T04:38:28.715Z,10.22
2022-10-11T04:40:55.408Z,10.92
2022-10-11T04:43:22.026Z,10.33
2022-10-11T04:45:52.243Z,10.81
2022-10-11T04:48:21.337Z,11.00
2022-10-11T04:50:48.080Z,10.25
2022-10-11T04:53:16.634Z,10.99
2022-10-11T04:55:43.239Z,10.95
2022-10-11T04:58:10.031Z,10.95
2022-10-11T05:00:36.617Z,10.15
2022-10-11T05:03:03.247Z,10.39
2022-10-11T05:05:29.835Z,10.40
2022-10-11T05:07:56.441Z,11.07
2022-10-11T05:10:22.980Z,11.07
2022-10-11T05:12:49.517Z,11.05
2022-10-11T05:15:16.172Z,11.07
2022-10-11T05:17:42.786Z,10.47
2022-10-11T05:20:10.019Z,11.10
2022-10-11T05:22:36.674Z,10.56
2022-10-11T05:25:03.466Z,11.05
2022-10-11T05:27:30.138Z,10.35
2022-10-11T05:29:56.751Z,10.97
2022-10-11T05:32:27.600Z,10.97
2022-10-11T05:34:54.534Z,9.87
2022-10-11T05:37:21.296Z,10.73
2022-10-11T05:39:47.855Z,10.85
2022-10-11T05:42:14.458Z,10.26
2022-10-11T05:44:41.043Z,10.43
2022-10-11T05:47:07.791Z,10.65
2022-10-11T05:49:34.413Z,10.33
2022-10-11T05:52:00.995Z,10.53
2022-10-11T05:54:31.472Z,10.95
2022-10-11T05:56:58.026Z,10.99
2022-10-11T05:59:24.605Z,11.05
2022-10-11T06:01:51.218Z,11.06
2022-10-11T06:04:19.003Z,11.09
2022-10-11T06:06:45.757Z,10.59
2022-10-11T06:09:12.802Z,10.50
2022-10-11T06:11:41.374Z,10.90
2022-10-11T06:14:09.488Z,11.23
2022-10-11T06:16:36.023Z,11.26
2022-10-11T06:19:02.878Z,11.14
2022-10-11T06:21:29.770Z,10.79
2022-10-11T06:24:01.154Z,11.29
2022-10-11T06:26:29.348Z,10.96
2022-10-11T06:28:56.460Z,10.71
2022-10-11T06:31:23.397Z,11.28
2022-10-11T06:33:49.955Z,11.25
2022-10-11T06:36:17.121Z,11.39
2022-10-11T06:38:45.396Z,11.38
2022-10-11T06:41:22.358Z,11.44
2022-10-11T06:43:51.710Z,11.12
2022-10-11T06:46:20.010Z,10.83
2022-10-11T06:48:48.250Z,11.63
2022-10-11T06:51:16.942Z,11.68
2022-10-11T06:53:43.750Z,11.74
2022-10-11T06:56:12.317Z,10.50
2022-10-11T06:58:39.880Z,11.78
2022-10-11T07:01:13.006Z,11.64
2022-10-11T07:03:42.649Z,11.88
2022-10-11T07:06:11.579Z,11.93
2022-10-11T07:08:38.672Z,11.97
2022-10-11T07:11:10.547Z,11.99
2022-10-11T07:13:38.275Z,12.06
2022-10-11T07:16:08.130Z,12.15
2022-10-11T07:18:35.278Z,11.92
2022-10-11T07:21:07.852Z,12.28
2022-10-11T07:23:35.239Z,12.34
2022-10-11T07:26:01.971Z,12.42
2022-10-11T07:28:30.450Z,12.44
2022-10-11T07:30:58.033Z,12.09
2022-10-11T07:33:25.073Z,12.57
2022-10-11T07:35:56.503Z,12.66
2022-10-11T07:38:23.062Z,12.74
2022-10-11T07:40:49.807Z,12.84
2022-10-11T07:43:16.548Z,12.89
2022-10-11T07:45:45.436Z,13.00
2022-10-11T07:48:12.092Z,13.05
2022-10-11T07:50:38.699Z,13.12
2022-10-11T07:53:05.264Z,13.19
2022-10-11T07:55:40.420Z,13.29
2022-10-11T07:58:12.012Z,12.44
2022-10-11T08:00:42.162Z,13.15
2022-10-11T08:03:10.232Z,12.19
2022-10-11T08:05:39.023Z,13.63
2022-10-11T08:08:05.970Z,13.02
2022-10-11T08:10:38.106Z,13.70
2022-10-11T08:13:05.324Z,13.66
2022-10-11T08:15:31.910Z,13.64
2022-10-11T08:17:58.473Z,13.17
2022-10-11T08:20:25.188Z,13.37
2022-10-11T08:22:51.758Z,13.90
2022-10-11T08:25:18.349Z,13.84
2022-10-11T08:27:44.932Z,14.19
2022-10-11T08:30:12.100Z,13.56
2022-10-11T08:32:38.877Z,13.80
2022-10-11T08:35:06.220Z,14.51
2022-10-11T08:37:32.860Z,14.58
2022-10-11T08:39:59.437Z,14.55
2022-10-11T08:42:35.943Z,14.65
2022-10-11T08:45:40.639Z,14.77
2022-10-11T08:48:21.165Z,14.82
2022-10-11T08:50:51.047Z,14.85
2022-10-11T08:53:47.731Z,14.84
2022-10-11T08:56:16.427Z,14.94
2022-10-11T08:59:08.909Z,15.16
2022-10-11T09:01:36.037Z,14.56
2022-10-11T09:04:03.625Z,15.22
2022-10-11T09:06:56.471Z,15.73
2022-10-11T09:09:44.918Z,15.81
2022-10-11T09:12:40.952Z,15.31
2022-10-11T09:15:12.779Z,16.23
2022-10-11T09:17:51.219Z,16.38
2022-10-11T09:20:48.813Z,16.46
2022-10-11T09:23:34.081Z,16.51
2022-10-11T09:26:19.420Z,16.32
2022-10-11T09:29:03.700Z,16.68
2022-10-11T09:31:31.430Z,16.19
2022-10-11T09:33:59.973Z,16.75
2022-10-11T09:36:36.170Z,16.78
2022-10-11T09:39:16.805Z,16.84
2022-10-11T09:41:51.986Z,16.92
2022-10-11T09:44:27.982Z,16.60
2022-10-11T09:46:55.876Z,17.18
2022-10-11T09:49:28.294Z,16.97
2022-10-11T09:51:58.603Z,16.82
2022-10-11T09:54:46.492Z,17.31
2022-10-11T09:57:23.867Z,17.36
2022-10-11T10:00:00.169Z,17.39
2022-10-11T10:02:29.010Z,16.93
2022-10-11T10:04:58.645Z,17.44
2022-10-11T10:07:25.920Z,16.85
2022-10-11T10:09:53.175Z,17.50
2022-10-11T10:12:23.500Z,17.46
2022-10-11T10:15:13.799Z,17.41
2022-10-11T10:17:49.324Z,16.81
2022-10-11T10:20:34.493Z,17.48
2022-10-11T10:23:09.730Z,17.54
2022-10-11T10:25:43.073Z,17.57
2022-10-11T10:28:25.520Z,17.62
2022-10-11T10:30:54.368Z,17.70
2022-10-11T10:33:25.939Z,17.65
2022-10-11T10:35:58.072Z,17.69
2022-10-11T10:38:40.672Z,17.76
2022-10-11T10:41:13.754Z,17.90
2022-10-11T10:43:43.024Z,18.04
2022-10-11T10:46:47.331Z,18.29
2022-10-11T10:49:53.246Z,18.46
2022-10-11T10:52:27.131Z,18.52
2022-10-11T10:55:05.515Z,18.35
2022-10-11T10:57:34.981Z,18.37
2022-10-11T11:00:10.342Z,18.39
2022-10-11T11:02:55.303Z,18.31
2022-10-11T11:05:37.057Z,18.28
2022-10-11T11:08:12.175Z,18.35
2022-10-11T11:11:10.634Z,18.30
2022-10-11T11:13:49.923Z,18.34
2022-10-11T11:16:16.464Z,18.41
2022-10-11T11:18:52.051Z,18.43
2022-10-11T11:21:41.703Z,18.55
2022-10-11T11:24:34.876Z,18.55
2022-10-11T11:27:29.507Z,18.72
2022-10-11T11:30:01.885Z,18.80
2022-10-11T11:32:45.578Z,18.80
2022-10-11T11:36:05.563Z,18.88
2022-10-11T11:38:53.644Z,18.74
2022-10-11T11:41:28.630Z,18.80
2022-10-11T11:44:30.009Z,18.80
2022-10-11T11:47:02.583Z,18.80
2022-10-11T11:49:37.367Z,18.08
2022-10-11T11:52:06.693Z,18.55
2022-10-11T11:55:05.933Z,18.25
2022-10-11T11:57:53.828Z,18.53
2022-10-11T12:00:23.518Z,17.60
2022-10-11T12:03:11.692Z,17.54
2022-10-11T12:05:38.425Z,18.44
2022-10-11T12:08:08.437Z,17.83
2022-10-11T12:10:50.100Z,18.48
2022-10-11T12:13:35.274Z,18.12
2022-10-11T12:16:13.718Z,18.42
2022-10-11T12:19:02.374Z,18.46
2022-10-11T12:21:35.511Z,18.28
2022-10-11T12:24:11.337Z,18.49
2022-10-11T12:26:46.846Z,18.35
2022-10-11T12:29:51.091Z,18.59
2022-10-11T12:32:26.911Z,18.57
2022-10-11T12:35:31.466Z,18.19
2022-10-11T12:38:14.797Z,18.55
2022-10-11T12:40:42.962Z,18.45
2022-10-11T12:43:22.510Z,18.50
2022-10-11T12:45:49.468Z,18.46
2022-10-11T12:48:19.007Z,18.49
2022-10-11T12:50:48.463Z,18.37
2022-10-11T12:53:21.134Z,18.39
2022-10-11T12:56:02.556Z,18.31
2022-10-11T12:58:38.385Z,18.22
2022-10-11T13:01:10.272Z,18.14
2022-10-11T13:03:40.778Z,17.59
2022-10-11T13:06:33.914Z,18.20
2022-10-11T13:09:09.465Z,18.18
2022-10-11T13:11:40.579Z,18.20
2022-10-11T13:14:16.847Z,18.19
2022-10-11T13:17:11.208Z,18.21
2022-10-11T13:22:20.730Z,18.37
2022-10-11T13:24:47.379Z,18.07
2022-10-11T13:27:20.789Z,18.35
2022-10-11T13:29:49.009Z,18.19
2022-10-11T13:32:26.104Z,18.49
2022-10-11T13:37:30.055Z,18.45
2022-10-11T13:39:57.438Z,17.72
2022-10-11T13:42:29.746Z,18.43
2022-10-11T13:44:58.132Z,18.50
2022-10-11T13:47:30.676Z,18.42
2022-10-11T13:50:10.835Z,18.50
2022-10-11T13:52:59.783Z,17.98
2022-10-11T13:55:28.533Z,18.53
2022-10-11T13:57:57.694Z,18.48
2022-10-11T14:00:26.994Z,18.45
2022-10-11T14:03:15.443Z,18.33
2022-10-11T14:05:54.430Z,18.28
2022-10-11T14:08:54.038Z,18.10
2022-10-11T14:11:39.186Z,18.02
2022-10-11T14:14:28.846Z,17.92
2022-10-11T14:17:10.587Z,17.84
2022-10-11T14:19:39.712Z,17.69
2022-10-11T14:22:11.912Z,17.70
2022-10-11T14:24:38.637Z,17.26
2022-10-11T14:27:06.178Z,17.67
2022-10-11T14:29:35.660Z,17.50
2022-10-11T14:32:14.078Z,17.64
2022-10-11T14:34:42.613Z,17.30
2022-10-11T14:37:12.429Z,17.62
2022-10-11T14:39:39.052Z,17.59
2022-10-11T14:42:06.008Z,17.12
2022-10-11T14:44:32.577Z,17.44
2022-10-11T14:46:59.516Z,17.49
2022-10-11T14:49:29.008Z,17.46
2022-10-11T14:51:57.717Z,17.45
2022-10-11T14:54:26.046Z,16.70
2022-10-11T14:56:54.741Z,16.45
2022-10-11T14:59:23.978Z,17.38
2022-10-11T15:01:53.483Z,17.37
2022-10-11T15:04:25.362Z,16.56
2022-10-11T15:06:53.922Z,17.24
2022-10-11T15:09:21.290Z,17.24
2022-10-11T15:11:49.383Z,16.20
2022-10-11T15:14:16.100Z,17.13
2022-10-11T15:16:43.093Z,17.11
2022-10-11T15:19:21.700Z,16.30
2022-10-11T15:21:48.718Z,16.29
2022-10-11T15:24:15.698Z,16.64
2022-10-11T15:26:42.459Z,16.87
2022-10-11T15:29:14.099Z,16.88
2022-10-11T15:31:40.755Z,16.86
2022-10-11T15:34:07.353Z,16.80
2022-10-11T15:36:34.085Z,16.07
2022-10-11T15:39:03.056Z,15.88
2022-10-11T15:41:29.662Z,16.64
2022-10-11T15:43:56.270Z,16.54
2022-10-11T15:46:23.353Z,16.45
2022-10-11T15:48:51.408Z,15.87
2022-10-11T15:51:18.585Z,16.06
2022-10-11T15:53:45.298Z,15.57
2022-10-11T15:56:17.182Z,16.19
2022-10-11T15:58:44.441Z,16.08
2022-10-11T16:01:19.348Z,16.04
2022-10-11T16:03:47.939Z,15.44
2022-10-11T16:06:15.159Z,15.92
2022-10-11T16:08:41.723Z,14.93
2022-10-11T16:11:09.831Z,15.76
2022-10-11T16:13:36.693Z,15.42
2022-10-11T16:16:06.249Z,15.57
2022-10-11T16:18:35.686Z,14.20
2022-10-11T16:21:10.193Z,15.39
2022-10-11T16:23:37.530Z,14.39
2022-10-11T16:26:07.999Z,15.14
2022-10-11T16:28:35.611Z,14.07
2022-10-11T16:31:18.071Z,15.08
2022-10-11T16:33:47.835Z,14.64
2022-10-11T16:36:32.484Z,14.94
2022-10-11T16:39:00.355Z,14.85
2022-10-11T16:41:26.938Z,14.23
2022-10-11T16:43:54.738Z,14.69
2022-10-11T16:46:22.048Z,14.57
2022-10-11T16:48:48.858Z,14.47
2022-10-11T16:51:15.527Z,14.27
2022-10-11T16:53:42.180Z,14.26
2022-10-11T16:56:11.312Z,14.10
2022-10-11T16:58:37.956Z,13.85
2022-10-11T17:01:09.629Z,13.09
2022-10-11T17:03:36.844Z,14.11
2022-10-11T17:06:04.787Z,14.10
2022-10-11T17:08:31.708Z,13.04
2022-10-11T17:10:58.292Z,14.07
2022-10-11T17:13:25.100Z,13.72
2022-10-11T17:15:51.676Z,13.23
2022-10-11T17:18:18.587Z,13.98
2022-10-11T17:20:45.311Z,13.88
2022-10-11T17:23:12.120Z,13.92
2022-10-11T17:25:46.467Z,13.62
2022-10-11T17:28:13.214Z,13.87
2022-10-11T17:30:42.797Z,13.17
2022-10-11T17:33:10.316Z,13.86
2022-10-11T17:35:36.899Z,13.43
2022-10-11T17:38:06.359Z,13.71
2022-10-11T17:40:33.259Z,13.28
2022-10-11T17:42:59.889Z,13.67
2022-10-11T17:45:26.509Z,13.61
2022-10-11T17:47:53.864Z,13.42
2022-10-11T17:50:20.506Z,13.41
2022-10-11T17:52:47.224Z,12.83
2022-10-11T17:55:13.763Z,13.25
2022-10-11T17:57:40.510Z,12.82
2022-10-11T18:00:07.714Z,13.11
2022-10-11T18:02:34.300Z,12.43
2022-10-11T18:05:00.928Z,12.93
2022-10-11T18:07:27.500Z,12.43
2022-10-11T18:09:54.214Z,12.30
2022-10-11T18:12:21.097Z,12.17
2022-10-11T18:14:47.814Z,12.26
2022-10-11T18:17:14.478Z,12.51
2022-10-11T18:19:41.024Z,12.44
2022-10-11T18:22:07.639Z,12.38
2022-10-11T18:24:34.624Z,11.59
2022-10-11T18:27:01.461Z,12.22
2022-10-11T18:29:28.637Z,11.34
2022-10-11T18:31:55.207Z,12.10
2022-10-11T18:34:21.787Z,12.05
2022-10-11T18:36:48.367Z,11.97
2022-10-11T18:39:15.385Z,10.51
2022-10-11T18:41:45.545Z,11.17
2022-10-11T18:44:14.377Z,11.78
2022-10-11T18:46:41.315Z,11.71
2022-10-11T18:49:08.897Z,11.20
2022-10-11T18:51:40.938Z,11.61
2022-10-11T18:54:10.052Z,11.55
2022-10-11T18:56:37.119Z,11.48
2022-10-11T18:59:05.587Z,10.88
2022-10-11T19:01:40.973Z,11.43
2022-10-11T19:04:10.162Z,11.39
2022-10-11T19:06:39.567Z,11.32
2022-10-11T19:09:10.749Z,11.00
2022-10-11T19:11:38.256Z,11.13
2022-10-11T19:14:07.084Z,10.41
2022-10-11T19:16:40.161Z,11.00
2022-10-11T19:19:07.656Z,10.61
2022-10-11T19:21:34.233Z,10.59
2022-10-11T19:24:01.136Z,10.27
2022-10-11T19:26:33.704Z,10.24
2022-10-11T19:29:01.266Z,10.86
2022-10-11T19:31:28.583Z,10.55
2022-10-11T19:33:56.843Z,10.00
2022-10-11T19:36:24.055Z,9.99
2022-10-11T19:38:51.066Z,10.71
2022-10-11T19:41:19.701Z,10.68
2022-10-11T19:43:46.788Z,9.39
2022-10-11T19:46:20.248Z,10.62
2022-10-11T19:48:54.569Z,10.57
2022-10-11T19:51:24.136Z,10.14
2022-10-11T19:54:02.605Z,10.51
2022-10-11T19:56:31.561Z,9.66
2022-10-11T19:58:58.238Z,10.44
2022-10-11T20:01:27.557Z,9.53
2022-10-11T20:03:56.675Z,10.37
2022-10-11T20:06:25.711Z,10.35
2022-10-11T20:09:04.901Z,9.45
2022-10-11T20:11:39.137Z,10.04
2022-10-11T20:14:06.005Z,9.94
2022-10-11T20:16:32.575Z,10.19
2022-10-11T20:18:59.369Z,10.24
2022-10-11T20:21:28.432Z,10.22
2022-10-11T20:23:59.564Z,10.21
2022-10-11T20:26:27.888Z,10.19
2022-10-11T20:28:56.180Z,10.18
2022-10-11T20:31:25.917Z,9.48
2022-10-11T20:33:55.978Z,10.19
2022-10-11T20:36:23.529Z,10.19
2022-10-11T20:38:50.634Z,9.38
2022-10-11T20:41:29.166Z,9.96
2022-10-11T20:43:57.917Z,10.20
2022-10-11T20:46:26.913Z,10.20
2022-10-11T20:49:01.764Z,10.20
2022-10-11T20:51:30.022Z,9.93
2022-10-11T20:53:56.755Z,9.75
2022-10-11T20:56:23.836Z,10.25
2022-10-11T20:58:52.635Z,9.68
2022-10-11T21:01:26.115Z,10.29
2022-10-11T21:03:53.307Z,10.33
2022-10-11T21:06:20.027Z,10.33
2022-10-11T21:08:46.563Z,9.79
2022-10-11T21:11:13.174Z,9.80
2022-10-11T21:13:40.023Z,10.04
2022-10-11T21:16:10.863Z,10.37
2022-10-11T21:18:38.042Z,10.37
2022-10-11T21:21:10.542Z,10.12
2022-10-11T21:23:37.255Z,10.41
2022-10-11T21:26:06.400Z,10.45
2022-10-11T21:28:33.305Z,9.64
2022-10-11T21:31:12.442Z,10.44
2022-10-11T21:33:40.725Z,10.43
2022-10-11T21:36:10.467Z,10.44
2022-10-11T21:38:37.570Z,10.46
2022-10-11T21:41:05.600Z,10.18
2022-10-11T21:43:33.649Z,10.29
2022-10-11T21:46:00.231Z,9.75
2022-10-11T21:48:29.376Z,10.45
2022-10-11T21:50:55.950Z,10.45
2022-10-11T21:53:22.521Z,10.09
2022-10-11T21:55:56.930Z,10.36
2022-10-11T21:58:23.494Z,10.44
2022-10-11T22:00:50.082Z,10.44
2022-10-11T22:03:16.674Z,9.24
2022-10-11T22:05:44.765Z,10.13
2022-10-11T22:08:12.673Z,10.39
2022-10-11T22:10:42.534Z,10.37
2022-10-11T22:13:09.168Z,9.50
2022-10-11T22:15:36.842Z,10.32
2022-10-11T22:18:03.703Z,10.29
2022-10-11T22:20:32.578Z,9.94
2022-10-11T22:22:59.312Z,9.60
2022-10-11T22:25:25.939Z,10.16
2022-10-11T22:27:52.571Z,9.20
2022-10-11T22:30:19.175Z,8.99
2022-10-11T22:32:45.910Z,10.10
2022-10-11T22:35:12.475Z,9.26
2022-10-11T22:37:39.013Z,9.12
2022-10-11T22:40:06.149Z,10.13
2022-10-11T22:42:32.712Z,10.15
2022-10-11T22:44:59.898Z,9.55
2022-10-11T22:47:26.732Z,9.86
2022-10-11T22:49:53.358Z,9.28
2022-10-11T22:52:19.929Z,10.20
2022-10-11T22:54:46.675Z,10.22
2022-10-11T22:57:13.265Z,10.24
2022-10-11T22:59:39.822Z,10.26
2022-10-11T23:02:06.434Z,10.23
2022-10-11T23:04:32.996Z,10.13
2022-10-11T23:07:04.647Z,9.42
2022-10-11T23:09:31.680Z,10.01
2022-10-11T23:11:59.387Z,10.18
2022-10-11T23:14:26.009Z,9.85
2022-10-11T23:16:53.276Z,10.13
2022-10-11T23:19:19.866Z,8.85
2022-10-11T23:21:46.738Z,10.02
2022-10-11T23:24:13.421Z,9.39
2022-10-11T23:26:39.974Z,10.04
2022-10-11T23:29:06.540Z,10.02
2022-10-11T23:31:33.081Z,8.59
2022-10-11T23:33:59.688Z,9.95
2022-10-11T23:36:26.449Z,9.79
2022-10-11T23:38:57.766Z,9.87
2022-10-11T23:41:25.843Z,9.77
2022-10-11T23:43:52.886Z,8.99
2022-10-11T23:46:19.500Z,9.27
2022-10-11T23:48:46.157Z,9.14
2022-10-11T23:51:13.202Z,9.54
2022-10-11T23:53:39.828Z,9.53
2022-10-11T23:56:06.798Z,9.07
